createdAt,value
2022-08-27T00:00:46.719Z,11.20
2022-08-27T00:01:46.773Z,13.00
2022-08-27T00:02:46.702Z,10.20
2022-08-27T00:03:46.752Z,11.30
2022-08-27T00:04:46.675Z,10.30
2022-08-27T00:05:46.652Z,12.20
2022-08-27T00:06:46.652Z,11.60
2022-08-27T00:07:46.663Z,10.30
2022-08-27T00:08:46.641Z,9.80
2022-08-27T00:09:46.611Z,13.40
2022-08-27T00:10:46.635Z,8.60
2022-08-27T00:11:46.594Z,9.70
2022-08-27T00:12:46.593Z,7.50
2022-08-27T00:13:46.572Z,11.70
2022-08-27T00:14:46.565Z,8.40
2022-08-27T00:15:46.547Z,8.60
2022-08-27T00:16:46.613Z,6.60
2022-08-27T00:17:46.537Z,11.90
2022-08-27T00:18:47.880Z,9.20
2022-08-27T00:19:46.517Z,9.00
2022-08-27T00:20:46.497Z,8.90
2022-08-27T00:21:46.477Z,9.20
2022-08-27T00:22:46.498Z,12.80
2022-08-27T00:23:46.461Z,9.30
2022-08-27T00:24:49.120Z,11.60
2022-08-27T00:25:46.439Z,10.00
2022-08-27T00:26:46.437Z,10.70
2022-08-27T00:27:46.428Z,8.40
2022-08-27T00:28:46.409Z,9.50
2022-08-27T00:29:46.397Z,10.80
2022-08-27T00:30:46.381Z,9.60
2022-08-27T00:31:46.420Z,8.80
2022-08-27T00:32:47.361Z,8.60
2022-08-27T00:33:46.351Z,10.60
2022-08-27T00:34:46.342Z,14.00
2022-08-27T00:35:46.331Z,8.20
2022-08-27T00:36:46.341Z,8.80
2022-08-27T00:37:46.324Z,12.50
2022-08-27T00:38:46.304Z,9.00
2022-08-27T00:39:46.283Z,10.00
2022-08-27T00:40:46.282Z,10.60
2022-08-27T00:41:46.273Z,11.50
2022-08-27T00:42:46.264Z,10.10
2022-08-27T00:43:46.242Z,8.50
2022-08-27T00:44:46.234Z,13.70
2022-08-27T00:45:46.287Z,11.90
2022-08-27T00:46:46.255Z,13.80
2022-08-27T00:47:46.195Z,11.80
2022-08-27T00:48:46.185Z,9.60
2022-08-27T00:49:46.182Z,11.20
2022-08-27T00:50:46.167Z,9.50
2022-08-27T00:51:46.157Z,13.40
2022-08-27T00:52:46.149Z,9.20
2022-08-27T00:53:46.129Z,10.00
2022-08-27T00:54:46.127Z,11.90
2022-08-27T00:55:52.837Z,9.30
2022-08-27T00:56:51.552Z,10.30
2022-08-27T00:57:47.080Z,12.30
2022-08-27T00:58:46.089Z,12.00
2022-08-27T00:59:46.114Z,10.60
2022-08-27T01:00:46.107Z,11.50
2022-08-27T01:01:46.104Z,11.50
2022-08-27T01:02:46.041Z,9.20
2022-08-27T01:03:46.021Z,10.10
2022-08-27T01:04:46.020Z,12.30
2022-08-27T01:05:46.000Z,11.40
2022-08-27T01:06:46.001Z,12.80
2022-08-27T01:07:45.983Z,10.80
2022-08-27T01:08:45.972Z,10.60
2022-08-27T01:09:45.974Z,9.40
2022-08-27T01:10:45.953Z,11.00
2022-08-27T01:11:45.954Z,10.60
2022-08-27T01:12:45.931Z,10.60
2022-08-27T01:13:59.983Z,12.30
2022-08-27T01:14:46.969Z,8.30
2022-08-27T01:15:45.897Z,12.00
2022-08-27T01:16:45.947Z,13.10
2022-08-27T01:17:45.866Z,10.80
2022-08-27T01:18:45.885Z,9.90
2022-08-27T01:19:45.886Z,10.90
2022-08-27T01:20:45.875Z,10.40
2022-08-27T01:21:45.826Z,11.10
2022-08-27T01:22:45.825Z,9.10
2022-08-27T01:23:45.827Z,8.70
2022-08-27T01:24:45.815Z,9.10
2022-08-27T01:25:45.844Z,11.00
2022-08-27T01:26:45.787Z,8.60
2022-08-27T01:27:45.758Z,9.90
2022-08-27T01:28:45.779Z,12.40
2022-08-27T01:29:45.760Z,10.60
2022-08-27T01:30:45.759Z,12.40
2022-08-27T01:31:45.811Z,14.00
2022-08-27T01:32:45.719Z,11.60
2022-08-27T01:33:45.701Z,12.10
2022-08-27T01:34:45.691Z,13.20
2022-08-27T01:35:45.671Z,11.90
2022-08-27T01:36:45.672Z,9.70
2022-08-27T01:37:45.650Z,11.20
2022-08-27T01:38:45.640Z,11.60
2022-08-27T01:39:45.652Z,13.30
2022-08-27T01:40:45.621Z,19.60
2022-08-27T01:41:45.641Z,18.20
2022-08-27T01:42:45.594Z,19.40
2022-08-27T01:43:45.590Z,22.50
2022-08-27T01:44:45.572Z,22.20
2022-08-27T01:45:45.575Z,23.20
2022-08-27T01:46:45.630Z,23.80
2022-08-27T01:47:45.546Z,25.60
2022-08-27T01:48:45.523Z,23.30
2022-08-27T01:49:45.515Z,26.10
2022-08-27T01:50:45.515Z,25.50
2022-08-27T01:51:45.508Z,28.20
2022-08-27T01:52:45.486Z,30.60
2022-08-27T01:53:45.475Z,27.90
2022-08-27T01:54:45.472Z,26.50
2022-08-27T01:55:46.345Z,26.80
2022-08-27T01:56:45.437Z,26.40
2022-08-27T01:57:45.473Z,30.20
2022-08-27T01:58:45.418Z,27.80
2022-08-27T01:59:45.420Z,26.40
2022-08-27T02:00:45.421Z,26.60
2022-08-27T02:01:45.449Z,28.60
2022-08-27T02:02:45.378Z,29.80
2022-08-27T02:03:45.368Z,31.90
2022-08-27T02:04:45.359Z,25.90
2022-08-27T02:05:45.381Z,27.90
2022-08-27T02:06:45.338Z,29.20
2022-08-27T02:07:45.340Z,27.20
2022-08-27T02:08:45.339Z,28.70
2022-08-27T02:09:45.309Z,27.60
2022-08-27T02:10:45.361Z,26.60
2022-08-27T02:11:45.272Z,28.90
2022-08-27T02:12:45.261Z,27.00
2022-08-27T02:13:45.256Z,29.00
2022-08-27T02:14:45.264Z,28.30
2022-08-27T02:15:45.253Z,25.10
2022-08-27T02:16:52.028Z,25.80
2022-08-27T02:17:46.203Z,25.90
2022-08-27T02:18:45.205Z,24.90
2022-08-27T02:19:45.183Z,24.00
2022-08-27T02:20:45.214Z,26.10
2022-08-27T02:21:45.183Z,25.10
2022-08-27T02:22:45.164Z,22.70
2022-08-27T02:23:45.146Z,21.90
2022-08-27T02:24:45.124Z,25.70
2022-08-27T02:25:45.133Z,25.40
2022-08-27T02:26:45.148Z,28.10
2022-08-27T02:27:45.094Z,27.40
2022-08-27T02:28:45.099Z,28.30
2022-08-27T02:29:46.679Z,27.60
2022-08-27T02:30:45.082Z,28.90
2022-08-27T02:31:45.099Z,32.10
2022-08-27T02:32:45.046Z,32.30
2022-08-27T02:33:45.046Z,31.90
2022-08-27T02:34:45.027Z,34.00
2022-08-27T02:35:45.048Z,39.80
2022-08-27T02:36:44.998Z,37.10
2022-08-27T02:37:44.991Z,36.10
2022-08-27T02:38:45.023Z,39.10
2022-08-27T02:39:46.130Z,40.00
2022-08-27T02:40:44.969Z,38.50
2022-08-27T02:41:44.949Z,39.90
2022-08-27T02:42:44.935Z,37.00
2022-08-27T02:43:44.912Z,43.60
2022-08-27T02:44:44.911Z,38.30
2022-08-27T02:45:44.901Z,44.40
2022-08-27T02:46:44.929Z,43.70
2022-08-27T02:47:44.901Z,42.60
2022-08-27T02:48:44.874Z,39.80
2022-08-27T02:49:44.846Z,39.60
2022-08-27T02:50:44.853Z,35.00
2022-08-27T02:51:44.825Z,36.20
2022-08-27T02:52:44.826Z,38.40
2022-08-27T02:53:44.802Z,37.20
2022-08-27T02:54:44.814Z,37.60
2022-08-27T02:55:44.856Z,40.40
2022-08-27T02:56:44.815Z,38.80
2022-08-27T02:57:44.835Z,40.80
2022-08-27T02:58:44.746Z,41.90
2022-08-27T02:59:44.737Z,41.40
2022-08-27T03:00:44.727Z,40.30
2022-08-27T03:01:44.780Z,42.90
2022-08-27T03:02:44.755Z,39.10
2022-08-27T03:03:44.757Z,42.20
2022-08-27T03:04:44.687Z,41.20
2022-08-27T03:05:44.689Z,41.90
2022-08-27T03:06:44.719Z,43.70
2022-08-27T03:07:44.649Z,44.20
2022-08-27T03:08:53.401Z,43.60
2022-08-27T03:09:45.631Z,43.00
2022-08-27T03:10:44.618Z,42.90
2022-08-27T03:11:44.599Z,42.90
2022-08-27T03:12:44.591Z,45.80
2022-08-27T03:13:44.581Z,45.50
2022-08-27T03:14:44.559Z,45.30
2022-08-27T03:15:44.593Z,44.30
2022-08-27T03:16:44.541Z,45.30
2022-08-27T03:17:44.540Z,43.20
2022-08-27T03:18:44.523Z,47.10
2022-08-27T03:19:44.522Z,44.60
2022-08-27T03:20:44.512Z,48.30
2022-08-27T03:21:44.502Z,46.80
2022-08-27T03:22:45.500Z,45.30
2022-08-27T03:23:44.473Z,46.90
2022-08-27T03:24:44.454Z,47.60
2022-08-27T03:25:44.463Z,45.70
2022-08-27T03:26:52.820Z,45.50
2022-08-27T03:27:45.423Z,44.90
2022-08-27T03:28:44.415Z,43.30
2022-08-27T03:29:44.503Z,46.10
2022-08-27T03:30:44.404Z,48.50
2022-08-27T03:31:44.411Z,44.70
2022-08-27T03:32:44.374Z,46.00
2022-08-27T03:33:44.355Z,45.40
2022-08-27T03:34:44.346Z,44.60
2022-08-27T03:35:44.354Z,47.50
2022-08-27T03:36:44.318Z,48.30
2022-08-27T03:37:44.317Z,49.30
2022-08-27T03:38:44.305Z,45.40
2022-08-27T03:39:44.287Z,50.70
2022-08-27T03:40:44.286Z,48.60
2022-08-27T03:41:54.593Z,47.90
2022-08-27T03:42:45.253Z,46.80
2022-08-27T03:43:44.248Z,47.90
2022-08-27T03:44:44.254Z,47.60
2022-08-27T03:46:00.339Z,48.10
2022-08-27T03:46:45.325Z,48.60
2022-08-27T03:47:44.211Z,51.20
2022-08-27T03:48:44.190Z,50.50
2022-08-27T03:49:44.184Z,49.70
2022-08-27T03:50:44.173Z,49.90
2022-08-27T03:51:44.181Z,51.00
2022-08-27T03:52:44.152Z,51.40
2022-08-27T03:53:44.143Z,51.80
2022-08-27T03:54:44.130Z,50.70
2022-08-27T03:55:44.123Z,55.60
2022-08-27T03:56:44.142Z,48.00
2022-08-27T03:57:44.100Z,50.20
2022-08-27T03:58:44.083Z,50.20
2022-08-27T03:59:44.073Z,48.00
2022-08-27T04:00:44.073Z,50.20
2022-08-27T04:01:44.082Z,51.10
2022-08-27T04:02:44.058Z,47.90
2022-08-27T04:03:44.025Z,45.20
2022-08-27T04:04:44.016Z,45.70
2022-08-27T04:05:44.730Z,46.80
2022-08-27T04:06:44.030Z,50.80
2022-08-27T04:07:43.994Z,47.10
2022-08-27T04:08:43.966Z,44.10
2022-08-27T04:09:43.967Z,42.60
2022-08-27T04:10:43.968Z,40.20
2022-08-27T04:11:43.959Z,42.10
2022-08-27T04:12:43.926Z,41.80
2022-08-27T04:13:43.929Z,41.10
2022-08-27T04:14:43.918Z,40.90
2022-08-27T04:15:43.936Z,41.50
2022-08-27T04:16:43.890Z,40.80
2022-08-27T04:17:43.879Z,41.20
2022-08-27T04:18:43.869Z,39.10
2022-08-27T04:19:43.859Z,40.60
2022-08-27T04:20:43.829Z,36.60
2022-08-27T04:21:43.839Z,39.40
2022-08-27T04:22:43.840Z,41.10
2022-08-27T04:23:43.852Z,40.70
2022-08-27T04:24:43.801Z,41.90
2022-08-27T04:25:43.792Z,45.20
2022-08-27T04:26:43.851Z,41.00
2022-08-27T04:27:43.762Z,38.40
2022-08-27T04:28:44.778Z,47.00
2022-08-27T04:29:44.743Z,46.80
2022-08-27T04:30:43.732Z,54.50
2022-08-27T04:31:43.896Z,53.10
2022-08-27T04:32:43.722Z,51.70
2022-08-27T04:33:43.704Z,48.80
2022-08-27T04:34:44.686Z,55.60
2022-08-27T04:35:43.675Z,50.10
2022-08-27T04:36:43.674Z,49.10
2022-08-27T04:37:43.655Z,51.40
2022-08-27T04:38:43.646Z,52.60
2022-08-27T04:39:46.569Z,49.90
2022-08-27T04:40:44.627Z,53.40
2022-08-27T04:41:43.626Z,47.90
2022-08-27T04:42:43.596Z,52.80
2022-08-27T04:43:43.597Z,54.60
2022-08-27T04:44:43.607Z,51.50
2022-08-27T04:45:43.568Z,53.50
2022-08-27T04:46:49.274Z,51.10
2022-08-27T04:47:44.548Z,52.20
2022-08-27T04:48:43.529Z,52.10
2022-08-27T04:49:43.529Z,54.60
2022-08-27T04:50:43.511Z,55.80
2022-08-27T04:51:43.517Z,52.20
2022-08-27T04:52:43.489Z,53.90
2022-08-27T04:53:43.479Z,53.40
2022-08-27T04:54:43.460Z,50.60
2022-08-27T04:55:43.466Z,52.10
2022-08-27T04:56:43.450Z,51.00
2022-08-27T04:57:43.430Z,49.60
2022-08-27T04:58:43.424Z,50.90
2022-08-27T04:59:43.432Z,54.80
2022-08-27T05:00:43.401Z,50.60
2022-08-27T05:01:43.441Z,49.00
2022-08-27T05:02:43.383Z,46.80
2022-08-27T05:03:43.365Z,47.80
2022-08-27T05:04:43.417Z,43.10
2022-08-27T05:05:43.403Z,47.30
2022-08-27T05:06:43.343Z,43.20
2022-08-27T05:07:43.324Z,41.40
2022-08-27T05:08:43.366Z,39.30
2022-08-27T05:09:43.304Z,38.50
2022-08-27T05:10:43.294Z,45.90
2022-08-27T05:11:43.287Z,40.40
2022-08-27T05:12:43.266Z,35.60
2022-08-27T05:13:43.262Z,36.70
2022-08-27T05:14:43.248Z,35.20
2022-08-27T05:15:43.289Z,40.30
2022-08-27T05:16:43.264Z,39.60
2022-08-27T05:17:43.216Z,40.40
2022-08-27T05:18:48.258Z,40.70
2022-08-27T05:19:44.185Z,38.40
2022-08-27T05:20:43.188Z,39.20
2022-08-27T05:21:43.187Z,40.30
2022-08-27T05:22:43.158Z,37.40
2022-08-27T05:23:43.240Z,35.00
2022-08-27T05:24:46.047Z,39.40
2022-08-27T05:25:44.121Z,38.40
2022-08-27T05:26:43.142Z,32.00
2022-08-27T05:27:43.094Z,37.80
2022-08-27T05:28:43.091Z,40.50
2022-08-27T05:29:43.091Z,36.20
2022-08-27T05:30:43.102Z,37.80
2022-08-27T05:31:43.070Z,39.30
2022-08-27T05:32:43.043Z,40.90
2022-08-27T05:33:43.032Z,43.60
2022-08-27T05:34:43.033Z,39.70
2022-08-27T05:35:43.003Z,38.60
2022-08-27T05:36:47.947Z,38.50
2022-08-27T05:37:44.004Z,41.30
2022-08-27T05:38:42.984Z,39.60
2022-08-27T05:39:42.962Z,40.70
2022-08-27T05:40:42.960Z,40.30
2022-08-27T05:41:42.945Z,41.90
2022-08-27T05:42:42.934Z,41.40
2022-08-27T05:43:46.476Z,41.00
2022-08-27T05:44:43.915Z,42.60
2022-08-27T05:45:42.888Z,44.40
2022-08-27T05:46:42.915Z,40.70
2022-08-27T05:47:44.917Z,43.80
2022-08-27T05:48:42.866Z,43.20
2022-08-27T05:49:42.853Z,42.20
2022-08-27T05:50:42.845Z,41.50
2022-08-27T05:51:42.827Z,39.40
2022-08-27T05:52:42.818Z,39.30
2022-08-27T05:53:42.800Z,37.40
2022-08-27T05:54:42.790Z,37.20
2022-08-27T05:55:42.778Z,40.60
2022-08-27T05:56:42.779Z,37.70
2022-08-27T05:57:42.750Z,40.00
2022-08-27T05:58:42.749Z,38.30
2022-08-27T05:59:42.738Z,39.90
2022-08-27T06:00:42.720Z,36.20
2022-08-27T06:01:42.720Z,38.50
2022-08-27T06:02:42.794Z,37.40
2022-08-27T06:03:42.681Z,42.00
2022-08-27T06:04:42.681Z,41.60
2022-08-27T06:05:42.719Z,40.90
2022-08-27T06:06:42.683Z,39.20
2022-08-27T06:07:42.650Z,36.90
2022-08-27T06:08:42.642Z,39.90
2022-08-27T06:09:42.686Z,39.30
2022-08-27T06:10:42.638Z,35.80
2022-08-27T06:11:42.614Z,36.80
2022-08-27T06:12:42.590Z,36.10
2022-08-27T06:13:43.643Z,38.60
2022-08-27T06:14:42.574Z,35.80
2022-08-27T06:15:42.625Z,34.50
2022-08-27T06:16:42.559Z,38.60
2022-08-27T06:17:42.525Z,35.00
2022-08-27T06:18:42.518Z,37.60
2022-08-27T06:19:42.556Z,37.30
2022-08-27T06:20:42.505Z,34.50
2022-08-27T06:21:42.500Z,35.80
2022-08-27T06:22:42.478Z,33.30
2022-08-27T06:23:42.469Z,33.10
2022-08-27T06:24:42.467Z,28.20
2022-08-27T06:25:42.440Z,33.40
2022-08-27T06:26:42.447Z,30.20
2022-08-27T06:27:42.447Z,32.70
2022-08-27T06:28:42.418Z,32.30
2022-08-27T06:29:42.415Z,30.40
2022-08-27T06:30:42.393Z,31.10
2022-08-27T06:31:42.390Z,29.90
2022-08-27T06:32:42.362Z,33.90
2022-08-27T06:33:42.352Z,30.00
2022-08-27T06:34:42.350Z,28.40
2022-08-27T06:35:42.330Z,35.30
2022-08-27T06:36:42.329Z,30.60
2022-08-27T06:37:42.341Z,31.90
2022-08-27T06:38:42.311Z,32.10
2022-08-27T06:39:42.292Z,30.70
2022-08-27T06:40:42.293Z,26.30
2022-08-27T06:41:42.281Z,27.90
2022-08-27T06:42:42.333Z,30.70
2022-08-27T06:43:42.256Z,34.20
2022-08-27T06:44:42.259Z,29.30
2022-08-27T06:45:42.240Z,33.80
2022-08-27T06:46:42.309Z,29.40
2022-08-27T06:47:42.196Z,29.90
2022-08-27T06:48:42.193Z,28.70
2022-08-27T06:49:43.467Z,33.30
2022-08-27T06:50:42.176Z,30.00
2022-08-27T06:51:42.156Z,28.00
2022-08-27T06:52:42.145Z,31.20
2022-08-27T06:53:42.147Z,29.10
2022-08-27T06:54:42.138Z,29.40
2022-08-27T06:55:42.108Z,29.40
2022-08-27T06:56:42.150Z,29.40
2022-08-27T06:57:42.081Z,26.90
2022-08-27T06:58:42.077Z,28.60
2022-08-27T06:59:42.060Z,27.10
2022-08-27T07:00:44.989Z,29.40
2022-08-27T07:01:43.096Z,25.10
2022-08-27T07:02:42.085Z,27.70
2022-08-27T07:03:42.117Z,27.00
2022-08-27T07:04:42.011Z,26.30
2022-08-27T07:05:41.989Z,24.20
2022-08-27T07:06:41.996Z,24.30
2022-08-27T07:07:46.692Z,26.20
2022-08-27T07:08:42.963Z,25.00
2022-08-27T07:09:41.941Z,22.90
2022-08-27T07:10:42.055Z,23.80
2022-08-27T07:11:41.941Z,23.50
2022-08-27T07:12:41.921Z,22.90
2022-08-27T07:13:41.903Z,23.90
2022-08-27T07:14:41.902Z,23.90
2022-08-27T07:15:41.928Z,23.60
2022-08-27T07:16:41.882Z,21.80
2022-08-27T07:17:41.965Z,21.80
2022-08-27T07:18:41.834Z,21.70
2022-08-27T07:19:41.872Z,22.20
2022-08-27T07:20:41.836Z,21.90
2022-08-27T07:21:41.833Z,20.10
2022-08-27T07:22:41.804Z,20.90
2022-08-27T07:23:41.794Z,22.60
2022-08-27T07:24:41.787Z,22.60
2022-08-27T07:25:41.776Z,21.50
2022-08-27T07:26:41.776Z,20.20
2022-08-27T07:27:41.745Z,19.40
2022-08-27T07:28:41.755Z,21.00
2022-08-27T07:29:41.726Z,23.00
2022-08-27T07:30:41.744Z,17.40
2022-08-27T07:31:41.717Z,19.80
2022-08-27T07:32:41.687Z,20.80
2022-08-27T07:33:45.369Z,22.20
2022-08-27T07:34:42.687Z,18.00
2022-08-27T07:35:41.659Z,18.60
2022-08-27T07:36:41.648Z,18.80
2022-08-27T07:37:41.648Z,19.20
2022-08-27T07:38:41.627Z,22.30
2022-08-27T07:39:41.678Z,19.50
2022-08-27T07:40:41.610Z,20.60
2022-08-27T07:41:41.620Z,20.50
2022-08-27T07:42:41.589Z,20.80
2022-08-27T07:43:41.586Z,24.80
2022-08-27T07:44:41.562Z,23.30
2022-08-27T07:45:41.590Z,20.30
2022-08-27T07:46:45.705Z,20.60
2022-08-27T07:47:42.573Z,20.60
2022-08-27T07:48:41.512Z,23.80
2022-08-27T07:49:41.515Z,21.10
2022-08-27T07:50:41.503Z,20.50
2022-08-27T07:51:41.509Z,22.00
2022-08-27T07:52:41.534Z,20.10
2022-08-27T07:53:41.495Z,19.60
2022-08-27T07:54:41.455Z,21.20
2022-08-27T07:55:41.442Z,19.20
2022-08-27T07:56:41.447Z,17.60
2022-08-27T07:57:41.434Z,20.20
2022-08-27T07:58:41.432Z,20.70
2022-08-27T07:59:41.397Z,17.20
2022-08-27T08:00:41.383Z,18.70
2022-08-27T08:01:41.434Z,15.00
2022-08-27T08:02:41.414Z,16.50
2022-08-27T08:03:41.347Z,16.00
2022-08-27T08:04:41.340Z,16.20
2022-08-27T08:05:41.327Z,15.90
2022-08-27T08:06:41.328Z,15.10
2022-08-27T08:07:41.300Z,18.40
2022-08-27T08:08:41.300Z,17.60
2022-08-27T08:09:41.279Z,18.90
2022-08-27T08:10:41.278Z,15.40
2022-08-27T08:11:41.272Z,15.30
2022-08-27T08:12:41.250Z,14.80
2022-08-27T08:13:41.240Z,15.90
2022-08-27T08:14:41.241Z,13.70
2022-08-27T08:15:41.231Z,16.80
2022-08-27T08:16:41.477Z,12.90
2022-08-27T08:17:41.193Z,15.00
2022-08-27T08:18:41.192Z,16.20
2022-08-27T08:19:41.209Z,14.30
2022-08-27T08:20:57.458Z,14.10
2022-08-27T08:21:42.153Z,16.70
2022-08-27T08:22:41.254Z,18.70
2022-08-27T08:23:41.134Z,15.50
2022-08-27T08:24:41.113Z,14.70
2022-08-27T08:25:41.115Z,16.20
2022-08-27T08:26:41.144Z,18.50
2022-08-27T08:27:41.083Z,16.80
2022-08-27T08:28:41.096Z,15.30
2022-08-27T08:29:41.085Z,17.20
2022-08-27T08:30:41.113Z,16.30
2022-08-27T08:31:41.067Z,15.70
2022-08-27T08:32:41.059Z,15.70
2022-08-27T08:33:41.024Z,16.20
2022-08-27T08:34:41.016Z,15.20
2022-08-27T08:35:41.321Z,14.90
2022-08-27T08:36:40.997Z,17.00
2022-08-27T08:37:41.012Z,14.20
2022-08-27T08:38:40.997Z,14.30
2022-08-27T08:39:40.950Z,13.50
2022-08-27T08:40:40.947Z,14.10
2022-08-27T08:41:40.958Z,14.30
2022-08-27T08:42:40.928Z,14.40
2022-08-27T08:43:40.911Z,14.90
2022-08-27T08:44:40.920Z,16.00
2022-08-27T08:45:40.906Z,14.50
2022-08-27T08:46:40.922Z,16.90
2022-08-27T08:47:40.917Z,15.50
2022-08-27T08:48:40.852Z,15.40
2022-08-27T08:49:40.855Z,13.50
2022-08-27T08:50:40.833Z,15.50
2022-08-27T08:51:40.834Z,13.50
2022-08-27T08:52:40.814Z,16.10
2022-08-27T08:53:40.805Z,12.30
2022-08-27T08:54:40.794Z,13.70
2022-08-27T08:55:40.775Z,12.70
2022-08-27T08:56:40.775Z,14.20
2022-08-27T08:57:40.753Z,16.30
2022-08-27T08:58:40.745Z,14.10
2022-08-27T08:59:40.734Z,14.50
2022-08-27T09:00:40.731Z,13.40
2022-08-27T09:01:40.837Z,13.80
2022-08-27T09:02:40.708Z,15.60
2022-08-27T09:03:40.735Z,13.70
2022-08-27T09:04:40.701Z,12.60
2022-08-27T09:05:40.685Z,11.40
2022-08-27T09:06:40.669Z,11.20
2022-08-27T09:07:40.645Z,14.70
2022-08-27T09:08:41.957Z,11.70
2022-08-27T09:09:40.618Z,13.90
2022-08-27T09:10:40.618Z,11.40
2022-08-27T09:11:40.620Z,12.80
2022-08-27T09:12:40.589Z,12.10
2022-08-27T09:13:40.579Z,12.80
2022-08-27T09:14:40.575Z,12.50
2022-08-27T09:15:40.567Z,13.20
2022-08-27T09:16:40.638Z,14.00
2022-08-27T09:17:40.551Z,11.60
2022-08-27T09:18:40.919Z,11.00
2022-08-27T09:19:40.510Z,14.30
2022-08-27T09:20:40.503Z,13.70
2022-08-27T09:21:40.502Z,14.50
2022-08-27T09:22:40.482Z,10.30
2022-08-27T09:23:40.502Z,10.50
2022-08-27T09:24:40.453Z,11.20
2022-08-27T09:25:40.444Z,11.10
2022-08-27T09:26:40.435Z,11.00
2022-08-27T09:27:40.432Z,11.60
2022-08-27T09:28:40.415Z,12.70
2022-08-27T09:29:40.395Z,11.20
2022-08-27T09:30:40.414Z,11.80
2022-08-27T09:31:40.383Z,10.60
2022-08-27T09:32:40.384Z,11.00
2022-08-27T09:33:44.628Z,15.20
2022-08-27T09:34:41.348Z,13.80
2022-08-27T09:35:40.346Z,11.90
2022-08-27T09:36:40.326Z,12.40
2022-08-27T09:37:40.329Z,10.00
2022-08-27T09:38:40.417Z,11.00
2022-08-27T09:39:40.288Z,11.30
2022-08-27T09:40:40.367Z,10.30
2022-08-27T09:41:40.317Z,13.80
2022-08-27T09:42:40.269Z,11.90
2022-08-27T09:43:40.297Z,16.10
2022-08-27T09:44:40.240Z,18.70
2022-08-27T09:45:40.270Z,18.40
2022-08-27T09:46:40.240Z,20.10
2022-08-27T09:47:40.210Z,18.70
2022-08-27T09:48:40.191Z,19.60
2022-08-27T09:49:40.181Z,19.30
2022-08-27T09:50:43.504Z,19.60
2022-08-27T09:51:40.151Z,20.70
2022-08-27T09:52:40.223Z,20.70
2022-08-27T09:53:40.147Z,20.70
2022-08-27T09:54:40.122Z,20.70
2022-08-27T09:55:40.554Z,21.10
2022-08-27T09:56:40.103Z,20.60
2022-08-27T09:57:40.222Z,20.30
2022-08-27T09:58:40.135Z,21.80
2022-08-27T09:59:40.065Z,22.00
2022-08-27T10:00:40.063Z,21.90
2022-08-27T10:01:40.114Z,23.10
2022-08-27T10:02:40.055Z,22.40
2022-08-27T10:03:40.050Z,25.40
2022-08-27T10:04:50.410Z,23.30
2022-08-27T10:05:41.005Z,22.80
2022-08-27T10:06:39.998Z,24.00
2022-08-27T10:07:40.006Z,23.40
2022-08-27T10:08:39.983Z,23.40
2022-08-27T10:09:39.960Z,25.60
2022-08-27T10:10:40.725Z,23.90
2022-08-27T10:11:39.938Z,25.90
2022-08-27T10:12:39.966Z,24.20
2022-08-27T10:13:39.933Z,25.30
2022-08-27T10:14:39.915Z,23.50
2022-08-27T10:15:43.268Z,23.70
2022-08-27T10:16:39.935Z,25.10
2022-08-27T10:17:39.882Z,25.60
2022-08-27T10:18:39.851Z,23.20
2022-08-27T10:19:39.844Z,22.80
2022-08-27T10:20:39.842Z,25.00
2022-08-27T10:21:39.821Z,23.70
2022-08-27T10:22:39.831Z,26.20
2022-08-27T10:23:39.804Z,23.10
2022-08-27T10:24:39.792Z,22.00
2022-08-27T10:25:39.773Z,24.10
2022-08-27T10:26:39.770Z,25.70
2022-08-27T10:27:39.763Z,23.80
2022-08-27T10:28:39.755Z,22.80
2022-08-27T10:29:39.735Z,23.20
2022-08-27T10:30:39.726Z,24.20
2022-08-27T10:31:39.765Z,24.20
2022-08-27T10:32:39.715Z,21.80
2022-08-27T10:33:39.685Z,27.30
2022-08-27T10:34:39.706Z,23.90
2022-08-27T10:35:46.792Z,23.50
2022-08-27T10:36:40.657Z,27.50
2022-08-27T10:37:40.590Z,27.30
2022-08-27T10:38:44.438Z,21.80
2022-08-27T10:39:40.627Z,25.80
2022-08-27T10:40:39.691Z,25.10
2022-08-27T10:41:39.600Z,23.80
2022-08-27T10:42:39.615Z,25.90
2022-08-27T10:43:39.579Z,23.50
2022-08-27T10:44:39.580Z,24.20
2022-08-27T10:45:39.588Z,21.50
2022-08-27T10:46:39.549Z,23.60
2022-08-27T10:47:40.550Z,22.20
2022-08-27T10:48:39.527Z,27.80
2022-08-27T10:49:39.510Z,22.10
2022-08-27T10:50:39.521Z,22.30
2022-08-27T10:51:39.494Z,22.30
2022-08-27T10:52:39.494Z,25.90
2022-08-27T10:53:39.463Z,25.20
2022-08-27T10:54:39.462Z,24.30
2022-08-27T10:55:39.463Z,25.30
2022-08-27T10:56:39.442Z,23.00
2022-08-27T10:57:55.157Z,21.70
2022-08-27T10:58:40.423Z,21.90
2022-08-27T10:59:39.394Z,21.40
2022-08-27T11:00:39.402Z,22.80
2022-08-27T11:01:39.394Z,21.70
2022-08-27T11:02:39.437Z,24.90
2022-08-27T11:03:39.652Z,22.50
2022-08-27T11:04:39.389Z,20.00
2022-08-27T11:05:39.344Z,24.40
2022-08-27T11:06:39.333Z,20.70
2022-08-27T11:07:39.328Z,21.90
2022-08-27T11:08:39.315Z,20.40
2022-08-27T11:09:39.329Z,20.20
2022-08-27T11:10:39.298Z,22.50
2022-08-27T11:12:12.685Z,22.40
2022-08-27T11:12:40.269Z,21.10
2022-08-27T11:13:39.278Z,19.80
2022-08-27T11:14:39.249Z,23.50
2022-08-27T11:15:39.238Z,21.30
2022-08-27T11:16:43.388Z,19.80
2022-08-27T11:17:40.220Z,18.20
2022-08-27T11:18:39.201Z,21.20
2022-08-27T11:19:39.192Z,23.20
2022-08-27T11:20:39.172Z,21.70
2022-08-27T11:21:39.169Z,19.50
2022-08-27T11:22:39.183Z,22.20
2022-08-27T11:23:39.152Z,19.60
2022-08-27T11:24:39.135Z,17.40
2022-08-27T11:25:39.133Z,16.00
2022-08-27T11:26:39.124Z,17.70
2022-08-27T11:27:39.119Z,21.30
2022-08-27T11:28:39.118Z,18.30
2022-08-27T11:29:39.091Z,16.30
2022-08-27T11:30:39.077Z,14.70
2022-08-27T11:31:39.091Z,14.90
2022-08-27T11:32:39.067Z,19.20
2022-08-27T11:33:42.723Z,19.90
2022-08-27T11:34:40.030Z,17.50
2022-08-27T11:35:39.008Z,19.40
2022-08-27T11:36:39.022Z,15.90
2022-08-27T11:37:39.028Z,15.30
2022-08-27T11:38:38.988Z,16.30
2022-08-27T11:39:38.968Z,18.00
2022-08-27T11:40:39.037Z,13.10
2022-08-27T11:41:44.706Z,14.70
2022-08-27T11:42:39.951Z,16.00
2022-08-27T11:43:38.931Z,15.00
2022-08-27T11:44:38.929Z,13.20
2022-08-27T11:45:38.908Z,16.10
2022-08-27T11:46:39.024Z,17.10
2022-08-27T11:47:39.073Z,14.10
2022-08-27T11:48:38.885Z,16.80
2022-08-27T11:49:38.863Z,15.50
2022-08-27T11:50:38.853Z,16.60
2022-08-27T11:51:38.832Z,17.00
2022-08-27T11:52:38.856Z,15.10
2022-08-27T11:53:51.851Z,17.60
2022-08-27T11:54:39.823Z,15.20
2022-08-27T11:55:38.804Z,20.20
2022-08-27T11:56:38.796Z,17.00
2022-08-27T11:57:38.778Z,15.50
2022-08-27T11:58:52.826Z,14.40
2022-08-27T11:59:39.770Z,17.30
2022-08-27T12:00:38.748Z,18.00
2022-08-27T12:01:38.742Z,15.10
2022-08-27T12:02:38.743Z,14.20
2022-08-27T12:03:38.789Z,19.80
2022-08-27T12:04:38.783Z,15.80
2022-08-27T12:05:38.688Z,20.00
2022-08-27T12:06:38.668Z,15.50
2022-08-27T12:07:38.669Z,16.80
2022-08-27T12:08:38.652Z,13.00
2022-08-27T12:09:38.630Z,12.50
2022-08-27T12:10:38.629Z,15.50
2022-08-27T12:11:38.614Z,16.10
2022-08-27T12:12:38.611Z,12.00
2022-08-27T12:13:38.597Z,15.30
2022-08-27T12:14:38.582Z,14.40
2022-08-27T12:15:38.561Z,17.90
2022-08-27T12:16:38.593Z,16.10
2022-08-27T12:17:38.564Z,14.50
2022-08-27T12:18:38.532Z,17.80
2022-08-27T12:19:38.528Z,13.80
2022-08-27T12:20:38.515Z,14.20
2022-08-27T12:21:38.503Z,13.80
2022-08-27T12:22:39.646Z,15.30
2022-08-27T12:23:38.484Z,17.70
2022-08-27T12:24:38.466Z,15.10
2022-08-27T12:25:38.478Z,14.90
2022-08-27T12:26:38.445Z,11.80
2022-08-27T12:27:38.437Z,14.90
2022-08-27T12:28:38.455Z,14.50
2022-08-27T12:29:39.369Z,12.50
2022-08-27T12:30:39.405Z,15.60
2022-08-27T12:31:38.423Z,11.20
2022-08-27T12:32:38.388Z,13.60
2022-08-27T12:33:38.371Z,10.90
2022-08-27T12:34:38.357Z,12.50
2022-08-27T12:35:38.343Z,13.60
2022-08-27T12:36:38.330Z,15.50
2022-08-27T12:37:38.440Z,13.00
2022-08-27T12:38:38.308Z,14.80
2022-08-27T12:39:38.291Z,13.50
2022-08-27T12:40:38.382Z,14.90
2022-08-27T12:41:44.300Z,14.30
2022-08-27T12:42:39.270Z,12.40
2022-08-27T12:43:38.243Z,13.10
2022-08-27T12:44:38.242Z,14.80
2022-08-27T12:45:38.223Z,13.10
2022-08-27T12:46:38.281Z,12.60
2022-08-27T12:47:38.211Z,16.20
2022-08-27T12:48:38.193Z,12.70
2022-08-27T12:49:39.652Z,15.30
2022-08-27T12:50:38.175Z,13.10
2022-08-27T12:51:38.154Z,15.10
2022-08-27T12:52:38.157Z,17.00
2022-08-27T12:53:38.157Z,13.00